MET'MAP v2.0
soon released !

Expected late october,
this new version will be
more efficient, smarter,
and hosted on a brand new
server x3 powerfull...
...and still free !


Not compatible ?
Try the mobile version !

LOG IN : | Subscribe | Disclaimer | Who is Orbifly ? |
ICAO code :
Legend : VFR Marginal VFR IFR Intensive IFR Very Intensive IFR
Visi :
Ceiling :
>= 8 km
>= 3000ft
5 to 8 km
1000 to 3000 ft
1500m to 5 km
500 to 1000 ft
800 to 1500m
200 to 500 ft
< 800m
< 200 ft

METAR - LZMC Malacky - 02 Jun 2020 13:47 UTC - Data Source NOAA   


- Airport Elevation : 679 ft
- No reported NOTAMs.


LZMC - Malacky

Latest METAR recorded : 2012/01/04 03:00 LZMC 040300Z 19002KT CAVOK 05/02 Q1015
TAF TAF LZMC
Valid from the 02 at 12:00 until the 02 at 21:00 UTC


021030Z 0212/0221 34012KT 9999 SCT040 BKN060
TEMPO 0212/0216 35012G26KT
PROB30
TEMPO 0216/0221 35012G26KT 8000 SHRA SCT025TCU BKN040
PROB40
TEMPO 0218/0221 35014G30KT 5000 TSRA SCT010 BKN025CB BKN035

Source NOAA


MET'MAP, your aeronautical weather chart ! - Copyright ORBIFLY December 2007

Programming & Development : Alexandra Zaïnal
Co-Developer : Marc-Olivier Méhu
Technical & hardware support : Manuel Goepfert
Concept & Financing : Baudouin d'Aumeries